Time;durP1;ratioP1;P1;durP2;ratioP2;P2;SDS_P1;SDS_P2;PMS_P1;PMS_P2;Temp;Humidity;BMP_temperature;BMP_pressure;BME280_temperature;BME280_humidity;BME280_pressure;Samples;Min_cycle;Max_cycle;Signal;HPM_P1;HPM_P2
2023/10/04 00:00:59;;;;;;;1.90;1.10;;;23.40;50.30;;;;;;5041020;28;20048;-58
2023/10/04 00:03:28;;;;;;;2.33;1.27;;;23.40;50.30;;;;;;5044513;28;20116;-60
2023/10/04 00:05:54;;;;;;;3.15;1.45;;;23.40;50.30;;;;;;5040853;28;20077;-59
2023/10/04 00:08:23;;;;;;;2.00;1.13;;;23.40;50.30;;;;;;5041838;28;20073;-59
2023/10/04 00:10:50;;;;;;;2.42;1.02;;;23.40;50.30;;;;;;5041680;28;20030;-62
2023/10/04 00:13:15;;;;;;;2.72;1.33;;;23.40;50.30;;;;;;5039435;28;20041;-61
2023/10/04 00:15:41;;;;;;;2.75;1.27;;;23.40;50.30;;;;;;5044917;28;20045;-60
2023/10/04 00:18:09;;;;;;;1.42;0.95;;;23.40;50.30;;;;;;5020577;28;20034;-61
2023/10/04 00:20:35;;;;;;;2.80;1.10;;;23.40;50.30;;;;;;5040140;28;20033;-60
2023/10/04 00:23:05;;;;;;;2.28;1.23;;;23.40;50.30;;;;;;5034627;28;20017;-60
2023/10/04 00:25:33;;;;;;;2.25;1.00;;;23.40;50.30;;;;;;5039600;28;20094;-60
2023/10/04 00:27:59;;;;;;;2.20;1.02;;;23.40;50.30;;;;;;5036591;28;20051;-60
2023/10/04 00:30:30;;;;;;;1.92;1.00;;;23.40;50.30;;;;;;5019321;28;20036;-60
2023/10/04 00:32:58;;;;;;;2.03;1.30;;;23.40;50.30;;;;;;5015784;28;20045;-60
2023/10/04 00:35:25;;;;;;;1.60;1.00;;;23.30;50.30;;;;;;5042716;28;20140;-60
2023/10/04 00:38:00;;;;;;;1.75;0.80;;;23.40;50.30;;;;;;5020718;28;20033;-61
2023/10/04 00:40:31;;;;;;;2.42;1.25;;;23.40;50.30;;;;;;5019814;28;20029;-59
2023/10/04 00:43:01;;;;;;;2.17;1.10;;;23.30;50.30;;;;;;5024305;28;20048;-60
2023/10/04 00:45:31;;;;;;;2.50;1.13;;;23.40;50.30;;;;;;5019217;28;20033;-60
2023/10/04 00:47:59;;;;;;;1.30;0.90;;;23.40;50.40;;;;;;5016974;28;20049;-60
2023/10/04 00:50:32;;;;;;;2.83;1.40;;;23.40;50.40;;;;;;5013094;28;20099;-61
2023/10/04 00:53:16;;;;;;;3.03;1.20;;;23.40;50.40;;;;;;5017962;28;20429;-61
2023/10/04 00:55:46;;;;;;;3.45;1.05;;;23.30;50.30;;;;;;5014925;28;20053;-59
2023/10/04 00:58:19;;;;;;;3.17;1.23;;;23.30;50.30;;;;;;5019524;28;20428;-60
2023/10/04 01:00:47;;;;;;;2.38;1.08;;;23.30;50.30;;;;;;5012466;28;20113;-60
2023/10/04 01:03:15;;;;;;;2.28;1.33;;;23.30;50.30;;;;;;5021725;28;20124;-60
2023/10/04 01:05:50;;;;;;;1.88;0.93;;;23.30;50.30;;;;;;5016496;28;20033;-62
2023/10/04 01:08:20;;;;;;;2.95;1.20;;;23.30;50.30;;;;;;5020143;28;20040;-60
2023/10/04 01:10:47;;;;;;;2.65;1.30;;;23.30;50.30;;;;;;5017522;28;20041;-60
2023/10/04 01:13:17;;;;;;;2.50;1.00;;;23.30;50.40;;;;;;5017038;28;20041;-60
2023/10/04 01:15:44;;;;;;;2.17;1.13;;;23.30;50.40;;;;;;5018863;28;20355;-61
2023/10/04 01:18:15;;;;;;;2.28;1.08;;;23.30;50.40;;;;;;5015889;28;20063;-60
2023/10/04 01:20:40;;;;;;;2.80;1.40;;;23.30;50.40;;;;;;5015086;28;20091;-61
2023/10/04 01:23:11;;;;;;;2.17;1.00;;;23.30;50.40;;;;;;5003492;28;20044;-60
2023/10/04 01:25:43;;;;;;;3.05;1.23;;;23.30;50.40;;;;;;5015657;28;20040;-60
2023/10/04 01:28:17;;;;;;;2.63;1.30;;;23.30;50.40;;;;;;5020407;28;20384;-61
2023/10/04 01:30:51;;;;;;;2.20;1.15;;;23.30;50.40;;;;;;5041806;28;20032;-60
2023/10/04 01:33:18;;;;;;;2.90;1.17;;;23.30;50.40;;;;;;5021317;28;20124;-61
2023/10/04 01:35:53;;;;;;;3.25;1.30;;;23.30;50.40;;;;;;5019824;28;20049;-60
2023/10/04 01:38:24;;;;;;;3.08;1.15;;;23.30;50.40;;;;;;5021695;28;20416;-60
2023/10/04 01:40:52;;;;;;;2.20;1.00;;;23.20;50.30;;;;;;5035415;28;20048;-62
2023/10/04 01:43:19;;;;;;;3.03;1.20;;;23.30;50.40;;;;;;5041228;28;20433;-62
2023/10/04 01:45:50;;;;;;;1.52;0.75;;;23.20;50.30;;;;;;5044967;28;20349;-60
2023/10/04 01:48:17;;;;;;;2.45;1.27;;;23.20;51.00;;;;;;5015381;28;20048;-60
2023/10/04 01:50:44;;;;;;;2.80;1.30;;;23.30;50.40;;;;;;5018934;28;20041;-62
2023/10/04 01:53:12;;;;;;;3.63;1.60;;;23.20;50.30;;;;;;5030145;28;20036;-61
2023/10/04 01:55:37;;;;;;;3.30;1.38;;;23.20;50.30;;;;;;5037970;28;20025;-61
2023/10/04 01:58:04;;;;;;;3.33;1.20;;;23.20;50.30;;;;;;5026285;28;20325;-60
2023/10/04 02:00:30;;;;;;;3.20;1.38;;;23.20;50.30;;;;;;5020557;28;20076;-60
2023/10/04 02:02:56;;;;;;;2.30;1.10;;;23.20;50.30;;;;;;5044553;28;20052;-60
2023/10/04 02:05:32;;;;;;;3.83;1.52;;;23.20;50.40;;;;;;5020944;28;20401;-61
2023/10/04 02:07:59;;;;;;;7.72;1.20;;;23.20;50.30;;;;;;5039203;28;20083;-59
2023/10/04 02:10:26;;;;;;;3.10;1.30;;;23.20;50.30;;;;;;5024329;28;20382;-60
2023/10/04 02:12:54;;;;;;;2.50;1.02;;;23.20;50.40;;;;;;5031089;28;20107;-61
2023/10/04 02:15:21;;;;;;;2.80;1.02;;;23.20;50.40;;;;;;5031101;28;20432;-60
2023/10/04 02:17:47;;;;;;;2.90;0.90;;;23.20;50.40;;;;;;5020393;28;20086;-61
2023/10/04 02:20:24;;;;;;;2.10;0.93;;;23.20;50.40;;;;;;5035736;28;20084;-59
2023/10/04 02:22:51;;;;;;;2.50;1.20;;;23.20;50.40;;;;;;5039079;28;20040;-61
2023/10/04 02:25:19;;;;;;;2.65;1.08;;;23.20;50.40;;;;;;5026797;28;20136;-59
2023/10/04 02:27:46;;;;;;;2.58;1.30;;;23.20;50.40;;;;;;5041993;28;20099;-61
2023/10/04 02:30:26;;;;;;;1.83;1.00;;;23.20;50.40;;;;;;5039750;28;20025;-60
2023/10/04 02:32:54;;;;;;;1.20;0.75;;;23.20;50.40;;;;;;5028772;28;20037;-60
2023/10/04 02:35:27;;;;;;;2.72;1.10;;;23.20;50.40;;;;;;5018973;28;20041;-61
2023/10/04 02:38:00;;;;;;;3.10;1.30;;;23.10;50.40;;;;;;5030701;28;20199;-59
2023/10/04 02:40:32;;;;;;;3.47;0.98;;;23.10;51.00;;;;;;5022938;28;20405;-61
2023/10/04 02:42:59;;;;;;;2.63;1.17;;;23.10;50.40;;;;;;5020924;28;20461;-60
2023/10/04 02:45:27;;;;;;;2.22;0.90;;;23.20;50.40;;;;;;5022051;28;20083;-60
2023/10/04 02:47:53;;;;;;;2.13;1.00;;;23.10;50.40;;;;;;5014390;28;20030;-59
2023/10/04 02:50:21;;;;;;;3.05;1.27;;;23.10;50.40;;;;;;5029985;28;20033;-61
2023/10/04 02:52:47;;;;;;;2.70;1.30;;;23.10;50.40;;;;;;5023303;28;20405;-60
2023/10/04 02:55:17;;;;;;;2.85;1.00;;;23.20;50.50;;;;;;5021349;28;20420;-61
2023/10/04 02:57:45;;;;;;;2.65;1.13;;;23.10;50.40;;;;;;5009808;28;20030;-61
2023/10/04 03:00:17;;;;;;;2.33;1.20;;;23.10;50.40;;;;;;5020756;28;20045;-62
2023/10/04 03:02:44;;;;;;;2.65;0.93;;;23.10;50.40;;;;;;5021772;28;20087;-62
2023/10/04 03:05:18;;;;;;;2.63;1.08;;;23.10;50.40;;;;;;5012998;28;20022;-60
2023/10/04 03:07:47;;;;;;;1.95;0.98;;;23.20;50.50;;;;;;5020016;28;20033;-62
2023/10/04 03:10:23;;;;;;;2.95;1.00;;;23.10;50.40;;;;;;5045196;28;20025;-60
2023/10/04 03:12:56;;;;;;;2.70;1.13;;;23.10;50.40;;;;;;5014582;28;20045;-61
2023/10/04 03:15:23;;;;;;;2.95;1.25;;;23.10;50.40;;;;;;5019486;28;20084;-60
2023/10/04 03:17:52;;;;;;;2.00;1.05;;;23.10;50.50;;;;;;5012754;28;20029;-61
2023/10/04 03:20:28;;;;;;;2.58;1.20;;;23.10;50.40;;;;;;5027814;28;20083;-61
2023/10/04 03:22:55;;;;;;;1.73;0.80;;;23.10;51.10;;;;;;5019837;28;20374;-60
2023/10/04 03:25:29;;;;;;;3.10;1.00;;;23.10;50.40;;;;;;5020353;28;20096;-60
2023/10/04 03:27:57;;;;;;;2.53;1.20;;;23.10;50.50;;;;;;5018949;28;20086;-61
2023/10/04 03:30:24;;;;;;;2.50;1.30;;;23.10;50.50;;;;;;5002667;28;20434;-61
2023/10/04 03:32:53;;;;;;;1.80;1.00;;;23.10;50.50;;;;;;5021093;28;20037;-60
2023/10/04 03:35:29;;;;;;;2.38;1.10;;;23.10;50.50;;;;;;5018111;28;20045;-60
2023/10/04 03:38:02;;;;;;;2.63;0.90;;;23.10;50.50;;;;;;5020832;28;20029;-60
2023/10/04 03:40:39;;;;;;;2.40;1.08;;;23.10;50.50;;;;;;5022358;28;20378;-60
2023/10/04 03:43:12;;;;;;;2.15;1.10;;;23.10;50.50;;;;;;5024385;28;20030;-60
2023/10/04 03:45:41;;;;;;;2.92;0.90;;;23.00;50.40;;;;;;5003557;28;20029;-61
2023/10/04 03:48:15;;;;;;;2.05;1.20;;;23.10;50.40;;;;;;5014022;28;20029;-61
2023/10/04 03:50:48;;;;;;;2.70;1.30;;;23.10;50.50;;;;;;5018901;28;20334;-59
2023/10/04 03:53:15;;;;;;;2.53;1.10;;;23.10;50.50;;;;;;5023773;28;20464;-59
2023/10/04 03:55:43;;;;;;;2.00;0.80;;;23.10;50.50;;;;;;5017474;28;20029;-61
2023/10/04 03:58:11;;;;;;;2.83;1.00;;;23.00;50.40;;;;;;5015485;28;20348;-62
2023/10/04 04:00:39;;;;;;;1.88;0.80;;;23.00;50.40;;;;;;5022743;28;20041;-60
2023/10/04 04:03:06;;;;;;;2.90;1.23;;;23.00;50.40;;;;;;5019588;28;20029;-60
2023/10/04 04:05:32;;;;;;;3.15;1.02;;;23.10;50.50;;;;;;5005042;28;20038;-62
2023/10/04 04:08:03;;;;;;;2.83;1.30;;;23.10;50.50;;;;;;5020376;28;20473;-61
2023/10/04 04:10:31;;;;;;;1.70;0.80;;;23.00;50.40;;;;;;5003739;28;20048;-62
2023/10/04 04:13:01;;;;;;;2.30;1.10;;;23.00;50.40;;;;;;5016002;28;21588;-60
2023/10/04 04:15:27;;;;;;;2.03;1.08;;;23.00;50.40;;;;;;5026636;28;20033;-61
2023/10/04 04:17:54;;;;;;;2.72;1.08;;;23.00;50.40;;;;;;5015385;28;20116;-60
2023/10/04 04:20:23;;;;;;;2.08;0.95;;;23.00;50.40;;;;;;5015717;28;20033;-59
2023/10/04 04:22:53;;;;;;;2.78;1.02;;;23.00;50.40;;;;;;5020552;28;20386;-60
2023/10/04 04:25:21;;;;;;;1.30;0.88;;;23.00;50.40;;;;;;5023412;28;20309;-61
2023/10/04 04:27:51;;;;;;;2.70;1.27;;;23.00;50.40;;;;;;5017570;28;20106;-60
2023/10/04 04:30:21;;;;;;;1.85;1.05;;;23.00;50.40;;;;;;5014720;28;20087;-60
2023/10/04 04:32:52;;;;;;;2.10;0.93;;;23.00;50.40;;;;;;5018402;28;20080;-60
2023/10/04 04:35:47;;;;;;;3.13;1.20;;;23.00;50.40;;;;;;5002718;28;20049;-61
2023/10/04 04:38:19;;;;;;;2.80;1.08;;;23.00;50.40;;;;;;4995891;28;20050;-61
2023/10/04 04:40:48;;;;;;;2.80;1.20;;;23.00;50.40;;;;;;4995725;28;20026;-61
2023/10/04 04:43:25;;;;;;;2.78;0.98;;;23.00;50.40;;;;;;4995742;28;20025;-60
2023/10/04 04:45:59;;;;;;;3.03;1.17;;;23.00;50.40;;;;;;5000868;28;20049;-60
2023/10/04 04:48:35;;;;;;;2.80;1.38;;;23.00;50.40;;;;;;5000562;28;20022;-61
2023/10/04 04:53:41;;;;;;;3.33;0.90;;;22.90;50.30;;;;;;4997808;28;20046;-60
2023/10/04 04:56:14;;;;;;;1.90;0.82;;;23.00;50.40;;;;;;5000755;28;20040;-60
2023/10/04 04:58:42;;;;;;;2.83;1.08;;;23.00;50.40;;;;;;4996253;28;20172;-60
2023/10/04 05:01:11;;;;;;;2.50;0.95;;;23.00;50.40;;;;;;4998405;28;20030;-59
2023/10/04 05:03:45;;;;;;;3.03;1.15;;;22.90;50.30;;;;;;4996070;28;20031;-60
2023/10/04 05:06:25;;;;;;;1.95;1.15;;;23.00;50.40;;;;;;5003360;28;20030;-59
2023/10/04 05:08:57;;;;;;;2.65;0.95;;;23.00;50.40;;;;;;4995387;28;20113;-61
2023/10/04 05:11:25;;;;;;;1.80;0.88;;;23.00;50.30;;;;;;5001058;28;20434;-61
2023/10/04 05:13:54;;;;;;;1.92;0.80;;;22.90;50.30;;;;;;4997296;28;20081;-59
2023/10/04 05:16:20;;;;;;;3.40;1.00;;;22.90;50.30;;;;;;4996910;28;20437;-61
2023/10/04 05:18:46;;;;;;;2.35;1.00;;;22.90;50.20;;;;;;4999315;28;20109;-59
2023/10/04 05:21:14;;;;;;;1.73;0.80;;;22.90;50.20;;;;;;4995672;28;20137;-61
2023/10/04 05:23:40;;;;;;;2.60;1.42;;;22.90;50.20;;;;;;4996020;28;20154;-60
2023/10/04 05:26:08;;;;;;;1.95;0.85;;;22.90;50.20;;;;;;5003673;28;20121;-60
2023/10/04 05:28:35;;;;;;;2.10;1.10;;;22.90;50.20;;;;;;5004449;28;20378;-60
2023/10/04 05:31:01;;;;;;;2.90;1.25;;;22.90;50.20;;;;;;5004349;28;20076;-60
2023/10/04 05:33:27;;;;;;;2.92;1.20;;;22.90;50.20;;;;;;5007834;28;20041;-61
2023/10/04 05:35:55;;;;;;;2.25;1.00;;;22.90;50.20;;;;;;5039925;28;20033;-59
2023/10/04 05:38:23;;;;;;;3.25;1.50;;;22.90;50.20;;;;;;5016928;28;20053;-60
2023/10/04 05:40:49;;;;;;;2.38;1.33;;;22.90;50.20;;;;;;5039689;28;20044;-61
2023/10/04 05:43:17;;;;;;;2.65;1.10;;;22.90;50.20;;;;;;5028680;28;20325;-60
2023/10/04 05:45:44;;;;;;;2.17;1.02;;;22.90;50.10;;;;;;5044554;28;20021;-60
2023/10/04 05:48:11;;;;;;;3.60;1.25;;;22.90;50.10;;;;;;5048815;28;20029;-60
2023/10/04 05:50:38;;;;;;;3.30;1.27;;;22.90;50.20;;;;;;5045275;28;20403;-60
2023/10/04 05:53:08;;;;;;;2.83;1.05;;;22.90;50.10;;;;;;5050376;28;20459;-59
2023/10/04 05:55:37;;;;;;;2.63;1.00;;;22.90;50.10;;;;;;5044644;28;20416;-60
2023/10/04 05:58:07;;;;;;;3.13;1.35;;;22.90;50.10;;;;;;5044719;28;20029;-58
2023/10/04 06:00:34;;;;;;;3.63;1.27;;;22.90;50.10;;;;;;5025625;28;20087;-61
2023/10/04 06:03:06;;;;;;;2.63;1.38;;;22.90;50.20;;;;;;5047737;28;20029;-61
2023/10/04 06:05:34;;;;;;;2.30;1.30;;;22.90;50.20;;;;;;5032364;28;20025;-60
2023/10/04 06:08:05;;;;;;;3.58;1.58;;;22.90;50.30;;;;;;5045211;28;20112;-61
2023/10/04 06:10:31;;;;;;;2.83;1.05;;;22.90;50.30;;;;;;5047227;28;20080;-61
2023/10/04 06:12:57;;;;;;;1.85;1.15;;;22.90;50.30;;;;;;5049654;28;20365;-62
2023/10/04 06:15:24;;;;;;;2.40;1.10;;;22.90;50.40;;;;;;5050383;28;20056;-60
2023/10/04 06:17:52;;;;;;;1.92;0.98;;;22.90;50.30;;;;;;5047062;28;20083;-60
2023/10/04 06:20:23;;;;;;;2.83;1.30;;;22.90;50.30;;;;;;5047767;28;20103;-60
2023/10/04 06:22:51;;;;;;;2.33;1.02;;;22.90;50.30;;;;;;5049352;28;20037;-59
2023/10/04 06:25:18;;;;;;;3.28;1.30;;;22.90;50.30;;;;;;5049683;28;20029;-59
2023/10/04 06:27:44;;;;;;;2.63;1.13;;;22.90;50.20;;;;;;5043760;28;20531;-60
2023/10/04 06:30:16;;;;;;;3.28;0.88;;;22.90;50.20;;;;;;5037670;28;20025;-59
2023/10/04 06:32:43;;;;;;;2.70;1.30;;;22.90;50.30;;;;;;5049676;28;20474;-59
2023/10/04 06:35:09;;;;;;;3.38;1.23;;;22.90;50.30;;;;;;5027344;28;20045;-61
2023/10/04 06:37:36;;;;;;;2.72;1.23;;;22.90;50.30;;;;;;5049486;28;20502;-63
2023/10/04 06:40:05;;;;;;;4.40;1.15;;;22.90;50.30;;;;;;5028134;28;20028;-62
2023/10/04 06:42:31;;;;;;;3.15;1.00;;;22.90;50.30;;;;;;5048943;28;20146;-61
2023/10/04 06:44:57;;;;;;;3.20;1.02;;;22.90;50.30;;;;;;5049025;28;20033;-62
2023/10/04 06:47:23;;;;;;;2.53;1.23;;;22.90;50.30;;;;;;5026172;28;20032;-59
2023/10/04 06:49:49;;;;;;;2.35;1.10;;;22.90;50.30;;;;;;5050433;28;20025;-60
2023/10/04 06:52:15;;;;;;;4.03;1.50;;;22.90;50.30;;;;;;5049766;28;20474;-60
2023/10/04 06:54:41;;;;;;;2.95;1.50;;;22.90;50.30;;;;;;5050004;28;20031;-62
2023/10/04 06:57:08;;;;;;;3.65;1.35;;;22.90;50.30;;;;;;5031065;28;20108;-62
2023/10/04 06:59:34;;;;;;;2.50;1.40;;;22.90;50.30;;;;;;5029231;28;20033;-60
2023/10/04 07:02:00;;;;;;;3.17;1.30;;;22.90;50.40;;;;;;5023345;28;20043;-60
2023/10/04 07:04:26;;;;;;;4.05;1.33;;;22.90;50.40;;;;;;5043193;28;20025;-60
2023/10/04 07:06:52;;;;;;;4.63;1.60;;;22.90;50.40;;;;;;5047748;28;20452;-60
2023/10/04 07:09:18;;;;;;;6.30;2.15;;;22.90;50.50;;;;;;5043027;28;20104;-62
2023/10/04 07:11:44;;;;;;;3.53;1.73;;;22.90;50.50;;;;;;5043053;28;20032;-60
2023/10/04 07:14:10;;;;;;;3.17;1.55;;;22.90;50.50;;;;;;5046477;28;20060;-60
2023/10/04 07:16:36;;;;;;;4.57;1.90;;;22.90;50.50;;;;;;5048698;28;20032;-60
2023/10/04 07:19:03;;;;;;;5.45;2.10;;;22.90;50.60;;;;;;5046517;28;20124;-59
2023/10/04 07:21:29;;;;;;;4.85;1.98;;;22.90;50.60;;;;;;5046274;28;20364;-59
2023/10/04 07:23:55;;;;;;;4.05;1.60;;;22.90;50.60;;;;;;5035131;28;20123;-61
2023/10/04 07:26:21;;;;;;;6.85;2.13;;;22.90;50.60;;;;;;5044744;28;20416;-60
2023/10/04 07:28:47;;;;;;;5.70;1.85;;;22.90;50.60;;;;;;5049998;28;20118;-61
2023/10/04 07:31:13;;;;;;;4.50;2.05;;;22.90;50.60;;;;;;5047043;28;20044;-60
2023/10/04 07:33:39;;;;;;;4.40;2.10;;;22.90;50.50;;;;;;5026002;28;20049;-59
2023/10/04 07:36:05;;;;;;;6.07;2.38;;;22.90;50.50;;;;;;5025776;28;20088;-57
2023/10/04 07:38:30;;;;;;;3.47;1.85;;;23.00;50.50;;;;;;5048867;28;20096;-59
2023/10/04 07:40:56;;;;;;;4.93;2.22;;;22.90;50.50;;;;;;5046646;28;20476;-60
2023/10/04 07:43:23;;;;;;;5.07;2.33;;;22.90;50.50;;;;;;5046835;28;20039;-60
2023/10/04 07:45:49;;;;;;;6.55;2.25;;;22.90;50.50;;;;;;5046821;28;20108;-59
2023/10/04 07:48:17;;;;;;;4.25;2.17;;;22.90;50.40;;;;;;5047107;28;20033;-61
2023/10/04 07:50:43;;;;;;;4.68;1.85;;;23.00;50.50;;;;;;5044727;28;20030;-60
2023/10/04 07:53:08;;;;;;;4.07;2.00;;;23.00;50.50;;;;;;5047629;28;20363;-61
2023/10/04 07:55:35;;;;;;;4.88;2.20;;;23.00;50.50;;;;;;5021522;28;20029;-60
2023/10/04 07:58:06;;;;;;;5.32;2.15;;;23.00;50.50;;;;;;5047576;28;20033;-60
2023/10/04 08:00:35;;;;;;;5.78;2.00;;;23.00;50.50;;;;;;5026152;28;20095;-59
2023/10/04 08:03:01;;;;;;;4.50;1.90;;;23.00;50.50;;;;;;5043676;28;20097;-60
2023/10/04 08:05:31;;;;;;;4.72;1.90;;;23.00;50.50;;;;;;5043316;28;20045;-61
2023/10/04 08:07:58;;;;;;;5.88;2.13;;;23.00;50.50;;;;;;5047325;28;20147;-61
2023/10/04 08:10:26;;;;;;;3.35;1.70;;;23.00;50.50;;;;;;5024303;28;20472;-61
2023/10/04 08:13:01;;;;;;;3.47;1.50;;;23.00;50.50;;;;;;5005133;28;20049;-60
2023/10/04 08:15:31;;;;;;;5.35;2.00;;;23.00;50.50;;;;;;5045231;28;20025;-60
2023/10/04 08:17:58;;;;;;;3.35;1.63;;;23.00;50.40;;;;;;5020532;28;20038;-60
2023/10/04 08:20:29;;;;;;;5.10;1.95;;;23.00;50.40;;;;;;5017555;28;20021;-60
2023/10/04 08:22:58;;;;;;;5.28;2.22;;;23.00;50.40;;;;;;5021387;28;20033;-60
2023/10/04 08:25:27;;;;;;;3.83;1.73;;;23.00;50.50;;;;;;5029136;28;20037;-60
2023/10/04 08:27:53;;;;;;;5.03;1.83;;;23.00;50.50;;;;;;5052403;28;20033;-60
2023/10/04 08:30:20;;;;;;;4.60;1.75;;;23.00;50.50;;;;;;5034559;28;20355;-59
2023/10/04 08:32:48;;;;;;;4.10;1.70;;;23.00;50.50;;;;;;5032271;28;20041;-58
2023/10/04 08:35:23;;;;;;;4.03;1.98;;;23.00;50.50;;;;;;5050798;28;20449;-60
2023/10/04 08:37:55;;;;;;;6.13;2.40;;;23.00;50.60;;;;;;5051756;28;20067;-59
2023/10/04 08:40:26;;;;;;;4.55;1.88;;;23.00;50.60;;;;;;5051689;28;20282;-60
2023/10/04 08:42:52;;;;;;;5.55;2.05;;;23.00;50.60;;;;;;5051977;28;20032;-60
2023/10/04 08:45:20;;;;;;;4.55;2.03;;;23.10;50.60;;;;;;5051638;28;20381;-60
2023/10/04 08:47:52;;;;;;;3.72;1.75;;;23.10;50.70;;;;;;5051519;28;20083;-59
2023/10/04 08:50:31;;;;;;;3.80;1.65;;;23.10;50.60;;;;;;5051615;28;20531;-61
2023/10/04 08:53:11;;;;;;;5.10;1.85;;;23.10;50.60;;;;;;5052065;28;20076;-60
2023/10/04 08:55:42;;;;;;;3.63;1.77;;;23.10;50.60;;;;;;5052125;28;20040;-60
2023/10/04 08:58:10;;;;;;;3.97;1.45;;;23.10;50.70;;;;;;5051145;28;20429;-61
2023/10/04 09:00:43;;;;;;;4.90;1.95;;;23.10;50.70;;;;;;5051707;28;20478;-59
2023/10/04 09:03:12;;;;;;;3.72;1.75;;;23.10;51.30;;;;;;5051578;28;20413;-60
2023/10/04 09:05:39;;;;;;;3.95;1.80;;;23.10;50.70;;;;;;5051998;28;20029;-60
2023/10/04 09:08:05;;;;;;;4.50;2.00;;;23.10;50.70;;;;;;5046783;28;20027;-61
2023/10/04 09:10:34;;;;;;;5.55;1.95;;;23.10;50.70;;;;;;5050244;28;20112;-61
2023/10/04 09:13:05;;;;;;;3.83;1.77;;;23.10;50.70;;;;;;5033691;28;20115;-62
2023/10/04 09:15:31;;;;;;;5.22;1.90;;;23.10;50.80;;;;;;5051467;28;20405;-59
2023/10/04 09:17:57;;;;;;;3.47;1.67;;;23.10;50.70;;;;;;5048583;28;20029;-59
2023/10/04 09:20:33;;;;;;;4.18;1.98;;;23.10;50.70;;;;;;5051384;28;20091;-60
2023/10/04 09:23:00;;;;;;;3.70;1.88;;;23.10;50.70;;;;;;5033464;28;20037;-60
2023/10/04 09:25:36;;;;;;;3.97;1.50;;;23.10;50.70;;;;;;5051724;28;20312;-60
2023/10/04 09:28:04;;;;;;;4.28;1.90;;;23.10;50.70;;;;;;5050784;28;20095;-61
2023/10/04 09:30:34;;;;;;;3.83;1.80;;;23.20;50.80;;;;;;5051538;28;20040;-60
2023/10/04 09:33:00;;;;;;;4.25;1.85;;;23.20;50.80;;;;;;5047560;28;20143;-61
2023/10/04 09:35:42;;;;;;;4.05;1.75;;;23.20;50.80;;;;;;4996851;28;20094;-60
2023/10/04 09:38:17;;;;;;;4.18;1.60;;;23.20;50.80;;;;;;5035323;28;20099;-61
2023/10/04 09:40:53;;;;;;;4.28;1.50;;;23.20;50.80;;;;;;5031363;28;20034;-59
2023/10/04 09:43:40;;;;;;;4.00;1.98;;;23.20;50.90;;;;;;5042385;28;20037;-60
2023/10/04 09:46:11;;;;;;;4.88;1.83;;;23.20;50.90;;;;;;5051329;28;20091;-59
2023/10/04 09:48:40;;;;;;;3.10;1.80;;;23.20;50.90;;;;;;5050740;28;20282;-60
2023/10/04 09:51:07;;;;;;;4.95;1.80;;;23.20;51.00;;;;;;5051456;28;20344;-57
2023/10/04 09:53:40;;;;;;;3.88;1.77;;;23.20;51.10;;;;;;5032357;28;20456;-59
2023/10/04 09:56:13;;;;;;;5.50;2.13;;;23.20;51.20;;;;;;5031436;28;20065;-57
2023/10/04 09:58:48;;;;;;;4.95;2.40;;;23.20;51.20;;;;;;5031375;28;20083;-59
2023/10/04 10:01:15;;;;;;;3.80;2.10;;;23.30;51.30;;;;;;5013697;28;20038;-58
2023/10/04 10:03:56;;;;;;;4.00;1.90;;;23.30;51.30;;;;;;5031878;28;20464;-52
2023/10/04 10:06:26;;;;;;;4.45;1.92;;;23.30;51.30;;;;;;5050289;28;20033;-57
2023/10/04 10:08:58;;;;;;;4.72;2.10;;;23.30;51.30;;;;;;5024941;28;20033;-59
2023/10/04 10:11:25;;;;;;;13.77;5.32;;;23.30;51.30;;;;;;5047230;28;20025;-59
2023/10/04 10:13:53;;;;;;;20.20;8.23;;;23.30;51.60;;;;;;5030850;28;20041;-59
2023/10/04 10:16:19;;;;;;;24.60;9.43;;;23.30;52.40;;;;;;5017056;28;20041;-58
2023/10/04 10:18:47;;;;;;;21.95;9.20;;;23.40;53.40;;;;;;5049914;28;20026;-53
2023/10/04 10:21:14;;;;;;;22.20;8.93;;;23.40;54.30;;;;;;5018306;28;20309;-60
2023/10/04 10:23:57;;;;;;;17.73;7.75;;;23.40;54.60;;;;;;5052339;28;20496;-61
2023/10/04 10:26:24;;;;;;;15.40;7.07;;;23.50;54.60;;;;;;5053832;28;20100;-62
2023/10/04 10:29:00;;;;;;;17.70;6.40;;;23.50;54.40;;;;;;5043587;28;20037;-61
2023/10/04 10:31:27;;;;;;;12.57;5.35;;;23.50;54.00;;;;;;5039212;28;20112;-62
2023/10/04 10:33:57;;;;;;;12.93;5.63;;;23.50;54.30;;;;;;5025244;28;20479;-61
2023/10/04 10:36:25;;;;;;;9.98;4.82;;;23.50;53.40;;;;;;5034119;28;20435;-58
2023/10/04 10:38:52;;;;;;;12.85;4.95;;;23.50;53.20;;;;;;5032192;28;20436;-61
2023/10/04 10:41:30;;;;;;;8.00;4.03;;;23.50;53.00;;;;;;5022079;28;20037;-63
2023/10/04 10:44:12;;;;;;;9.35;4.18;;;23.50;52.70;;;;;;5023348;28;20079;-59
2023/10/04 10:47:06;;;;;;;10.23;3.75;;;23.50;52.50;;;;;;5029205;28;20415;-61
2023/10/04 10:49:51;;;;;;;6.70;3.30;;;23.50;52.30;;;;;;5020572;28;20417;-60
2023/10/04 10:52:34;;;;;;;7.97;3.28;;;23.50;52.20;;;;;;5021094;28;20080;-63
2023/10/04 10:55:06;;;;;;;8.13;3.10;;;23.50;52.00;;;;;;5024102;28;20097;-64
2023/10/04 10:57:36;;;;;;;6.78;3.22;;;23.50;51.90;;;;;;5032486;28;20026;-57
2023/10/04 11:00:12;;;;;;;7.15;3.03;;;23.50;51.80;;;;;;5016209;28;20034;-62
2023/10/04 11:02:38;;;;;;;7.40;2.72;;;23.60;51.70;;;;;;5017104;28;20034;-63
2023/10/04 11:05:08;;;;;;;7.32;2.97;;;23.50;51.60;;;;;;5023757;28;20033;-62
2023/10/04 11:07:37;;;;;;;7.95;3.08;;;23.60;51.50;;;;;;5028009;28;20030;-60
2023/10/04 11:10:05;;;;;;;4.35;2.60;;;23.60;51.40;;;;;;5006719;28;20021;-63
2023/10/04 11:12:38;;;;;;;6.07;2.67;;;23.50;51.30;;;;;;5028935;28;20198;-62
2023/10/04 11:15:07;;;;;;;4.93;2.72;;;23.60;51.20;;;;;;5028752;28;20339;-59
2023/10/04 11:17:35;;;;;;;6.95;2.70;;;23.60;51.10;;;;;;5022217;28;20096;-61
2023/10/04 11:20:09;;;;;;;5.10;2.63;;;23.60;51.00;;;;;;5022981;28;20905;-62
2023/10/04 11:22:40;;;;;;;4.20;2.20;;;23.60;51.00;;;;;;5024165;28;20048;-58
2023/10/04 11:25:08;;;;;;;7.13;2.90;;;23.60;50.90;;;;;;5030524;28;20134;-59
2023/10/04 11:27:37;;;;;;;4.35;2.15;;;23.60;50.80;;;;;;5025768;28;20030;-61
2023/10/04 11:30:05;;;;;;;5.38;2.17;;;23.60;50.80;;;;;;5024792;28;20306;-62
2023/10/04 11:32:35;;;;;;;4.45;2.33;;;23.60;50.70;;;;;;5025230;28;20160;-61
2023/10/04 11:35:08;;;;;;;6.80;2.35;;;23.70;50.70;;;;;;5036152;28;20076;-61
2023/10/04 11:37:49;;;;;;;5.63;2.40;;;23.70;51.30;;;;;;5040145;28;20037;-60
2023/10/04 11:40:19;;;;;;;4.88;2.45;;;23.80;50.40;;;;;;5026531;28;20097;-60
2023/10/04 11:42:46;;;;;;;4.88;2.17;;;23.80;50.30;;;;;;5044793;28;20371;-59
2023/10/04 11:45:29;;;;;;;4.60;1.85;;;24.00;50.20;;;;;;5048203;28;20071;-57
2023/10/04 11:47:57;;;;;;;;;;;24.10;50.00;;;;;;5047094;28;20059;-60
2023/10/04 11:50:23;;;;;;;6.05;2.40;;;24.20;49.90;;;;;;5045753;28;19946;-60
2023/10/04 11:52:52;;;;;;;5.43;2.78;;;24.20;49.60;;;;;;5025274;28;20449;-61
2023/10/04 11:55:25;;;;;;;5.63;2.42;;;24.30;49.40;;;;;;5041892;28;20039;-60
2023/10/04 11:57:51;;;;;;;3.95;2.38;;;24.40;49.20;;;;;;5045211;28;20048;-60
2023/10/04 12:00:21;;;;;;;4.55;2.22;;;24.50;49.00;;;;;;5044528;28;20036;-59
2023/10/04 12:02:49;;;;;;;5.75;2.25;;;24.60;48.80;;;;;;5028064;28;20198;-61
2023/10/04 12:05:15;;;;;;;4.38;2.30;;;24.70;48.60;;;;;;5039924;28;20480;-59
2023/10/04 12:07:41;;;;;;;4.28;2.20;;;24.70;48.30;;;;;;5015345;28;20036;-60
2023/10/04 12:10:09;;;;;;;4.75;2.40;;;24.80;48.30;;;;;;5050606;28;20052;-60
2023/10/04 12:12:37;;;;;;;5.35;2.70;;;24.90;48.10;;;;;;5042474;28;20068;-60
2023/10/04 12:15:07;;;;;;;4.10;2.10;;;24.90;47.90;;;;;;5041124;28;20355;-63
2023/10/04 12:17:36;;;;;;;4.65;2.50;;;25.00;47.70;;;;;;5026956;28;20139;-59
2023/10/04 12:20:04;;;;;;;4.10;2.40;;;25.00;47.50;;;;;;5044580;28;20090;-59
2023/10/04 12:22:30;;;;;;;5.22;2.65;;;25.10;47.40;;;;;;5024109;28;20116;-60
2023/10/04 12:24:56;;;;;;;6.13;2.42;;;25.10;47.20;;;;;;5041405;28;20021;-60
2023/10/04 12:27:24;;;;;;;4.72;2.65;;;25.20;47.00;;;;;;5048943;28;20044;-62
2023/10/04 12:29:50;;;;;;;3.72;2.22;;;25.20;46.90;;;;;;5047727;28;20021;-62
2023/10/04 12:32:19;;;;;;;5.07;2.20;;;25.30;46.80;;;;;;5013657;28;20033;-62
2023/10/04 12:34:45;;;;;;;4.60;2.47;;;25.30;46.60;;;;;;5011734;28;20453;-63
2023/10/04 12:37:12;;;;;;;3.50;1.95;;;25.30;46.50;;;;;;5026260;28;20041;-63
2023/10/04 12:39:38;;;;;;;3.15;1.85;;;25.40;46.40;;;;;;5024954;28;20391;-63
2023/10/04 12:42:04;;;;;;;4.70;2.65;;;25.40;46.30;;;;;;5025375;28;20037;-62
2023/10/04 12:44:31;;;;;;;5.28;2.30;;;25.40;46.10;;;;;;5024431;28;20029;-61
2023/10/04 12:46:57;;;;;;;4.22;2.20;;;25.50;46.10;;;;;;5021033;28;20090;-60
2023/10/04 12:49:23;;;;;;;4.47;2.35;;;25.60;46.00;;;;;;5014508;28;20037;-61
2023/10/04 12:51:50;;;;;;;4.50;2.38;;;25.50;45.80;;;;;;5023341;28;20037;-59
2023/10/04 12:54:16;;;;;;;4.63;2.35;;;25.60;45.80;;;;;;5019333;28;20041;-62
2023/10/04 12:56:46;;;;;;;4.05;2.40;;;25.60;45.60;;;;;;5006072;28;20048;-61
2023/10/04 12:59:12;;;;;;;3.75;2.20;;;25.60;45.50;;;;;;5022736;28;20040;-64